Time;durP1;ratioP1;P1;durP2;ratioP2;P2;SDS_P1;SDS_P2;PMS_P1;PMS_P2;Temp;Humidity;BMP_temperature;BMP_pressure;BME280_temperature;BME280_humidity;BME280_pressure;Samples;Min_cycle;Max_cycle;Signal;HPM_P1;HPM_P2
2023/07/12 00:00:24;;;;;;;;;;;12.00;99.90;;;;;;5094044;28;20435;-63
2023/07/12 00:02:51;;;;;;;;;;;12.10;99.90;;;;;;5094241;28;19912;-64
2023/07/12 00:05:18;;;;;;;;;;;12.20;99.90;;;;;;5094175;28;19908;-69
2023/07/12 00:07:48;;;;;;;;;;;12.30;99.90;;;;;;5094133;28;19964;-67
2023/07/12 00:10:35;;;;;;;;;;;12.30;99.90;;;;;;5094177;28;19908;-68
2023/07/12 00:13:03;;;;;;;;;;;12.40;99.90;;;;;;5094155;28;19962;-65
2023/07/12 00:15:30;;;;;;;;;;;12.50;99.90;;;;;;5094219;28;19905;-64
2023/07/12 00:17:57;;;;;;;;;;;12.60;99.90;;;;;;5094016;28;19977;-65
2023/07/12 00:20:26;;;;;;;;;;;12.70;99.90;;;;;;5093721;28;19915;-66
2023/07/12 00:22:53;;;;;;;;;;;12.70;99.90;;;;;;5093855;28;19908;-67
2023/07/12 00:25:21;;;;;;;;;;;12.80;99.90;;;;;;5093750;28;20029;-64
2023/07/12 00:27:49;;;;;;;;;;;12.90;99.90;;;;;;5093658;28;20543;-68
2023/07/12 00:30:17;;;;;;;;;;;13.10;99.90;;;;;;5093637;28;19915;-66
2023/07/12 00:32:47;;;;;;;;;;;13.20;99.90;;;;;;5093261;28;20339;-68
2023/07/12 00:35:18;;;;;;;;;;;13.30;99.90;;;;;;5093717;28;19953;-66
2023/07/12 00:37:45;;;;;;;;;;;13.30;99.90;;;;;;5093861;28;19908;-65
2023/07/12 00:40:16;;;;;;;;;;;13.50;99.90;;;;;;5093524;28;19916;-66
2023/07/12 00:42:45;;;;;;;;;;;13.60;99.90;;;;;;5093700;28;19914;-65
2023/07/12 00:45:12;;;;;;;;;;;13.70;99.90;;;;;;5093553;28;19967;-65
2023/07/12 00:47:40;;;;;;;;;;;13.70;99.90;;;;;;5093709;28;19916;-65
2023/07/12 00:50:16;;;;;;;;;;;13.80;99.90;;;;;;5093474;28;19912;-66
2023/07/12 00:52:43;;;;;;;;;;;13.80;99.90;;;;;;5093531;28;19954;-64
2023/07/12 00:55:28;;;;;;;;;;;13.90;99.90;;;;;;5093277;28;19954;-65
2023/07/12 00:57:55;;;;;;;;;;;14.00;99.90;;;;;;5093234;28;19912;-64
2023/07/12 01:00:21;;;;;;;;;;;14.10;99.90;;;;;;5093212;28;19916;-66
2023/07/12 01:02:48;;;;;;;;;;;14.20;99.90;;;;;;5093073;28;19994;-65
2023/07/12 01:05:15;;;;;;;;;;;14.30;99.90;;;;;;5093282;28;19915;-65
2023/07/12 01:07:42;;;;;;;;;;;14.40;99.90;;;;;;5093327;28;19969;-64
2023/07/12 01:10:08;;;;;;;;;;;14.50;99.90;;;;;;5093081;28;19918;-64
2023/07/12 01:12:35;;;;;;;;;;;14.70;99.90;;;;;;5093250;28;19919;-64
2023/07/12 01:15:02;;;;;;;;;;;14.80;99.90;;;;;;5093195;28;19931;-65
2023/07/12 01:17:28;;;;;;;;;;;14.90;99.90;;;;;;5092977;28;20320;-65
2023/07/12 01:19:55;;;;;;;;;;;15.10;99.90;;;;;;5093312;28;19919;-66
2023/07/12 01:22:22;;;;;;;;;;;15.20;99.90;;;;;;5093038;28;19915;-65
2023/07/12 01:24:48;;;;;;;;;;;15.30;99.90;;;;;;5093117;28;19943;-66
2023/07/12 01:27:17;;;;;;;;;;;15.40;99.60;;;;;;5092861;28;20004;-66
2023/07/12 01:29:45;;;;;;;;;;;15.50;99.70;;;;;;5092853;28;19915;-65
2023/07/12 01:32:12;;;;;;;;;;;15.70;99.00;;;;;;5092878;28;19908;-65
2023/07/12 01:34:38;;;;;;;;;;;15.80;98.80;;;;;;5093282;28;19915;-66
2023/07/12 01:37:05;;;;;;;;;;;15.90;98.40;;;;;;5092898;28;19908;-66
2023/07/12 01:39:35;;;;;;;;;;;16.10;98.00;;;;;;5092530;28;19982;-66
2023/07/12 01:42:02;;;;;;;;;;;16.20;98.00;;;;;;5092549;28;20272;-66
2023/07/12 01:44:28;;;;;;;;;;;16.30;98.00;;;;;;5095548;28;19916;-66
2023/07/12 01:46:56;;;;;;;;;;;16.50;97.50;;;;;;5096725;28;20015;-65
2023/07/12 01:49:22;;;;;;;;;;;16.60;97.30;;;;;;5096754;28;20416;-65
2023/07/12 01:51:49;;;;;;;;;;;16.70;97.30;;;;;;5097026;28;19947;-65
2023/07/12 01:54:16;;;;;;;;;;;16.90;96.50;;;;;;5097004;28;19908;-64
2023/07/12 01:56:42;;;;;;;;;;;17.00;96.30;;;;;;5096750;28;19908;-68
2023/07/12 01:59:09;;;;;;;;;;;17.10;95.90;;;;;;5096664;28;19998;-65
2023/07/12 02:01:36;;;;;;;;;;;17.20;95.60;;;;;;5096664;28;19912;-64
2023/07/12 02:04:02;;;;;;;;;;;17.30;95.60;;;;;;5096362;28;19999;-68
2023/07/12 02:06:29;;;;;;;;;;;17.50;95.50;;;;;;5096401;28;19908;-66
2023/07/12 02:08:56;;;;;;;;;;;17.60;95.10;;;;;;5096441;28;19909;-65
2023/07/12 02:11:22;;;;;;;;;;;17.60;95.30;;;;;;5096578;28;19908;-66
2023/07/12 02:13:49;;;;;;;;;;;17.70;95.40;;;;;;5096667;28;19915;-66
2023/07/12 02:16:15;;;;;;;;;;;17.70;95.10;;;;;;5096596;28;19908;-64
2023/07/12 02:18:42;;;;;;;;;;;17.70;95.10;;;;;;5096344;28;19908;-66
2023/07/12 02:21:09;;;;;;;;;;;17.70;95.10;;;;;;5096196;28;19912;-68
2023/07/12 02:23:35;;;;;;;;;;;17.70;94.70;;;;;;5096157;28;19912;-66
2023/07/12 02:26:02;;;;;;;;;;;17.60;94.90;;;;;;5096159;28;19912;-64
2023/07/12 02:28:29;;;;;;;;;;;17.70;95.20;;;;;;5095932;28;19916;-65
2023/07/12 02:31:13;;;;;;;;;;;17.80;95.30;;;;;;5095845;28;19908;-65
2023/07/12 02:33:39;;;;;;;;;;;17.80;95.00;;;;;;5077859;28;20339;-65
2023/07/12 02:36:06;;;;;;;;;;;17.80;95.10;;;;;;5096150;28;19950;-65
2023/07/12 02:38:33;;;;;;;;;;;17.90;95.10;;;;;;5096134;28;19915;-64
2023/07/12 02:40:59;;;;;;;;;;;18.10;94.70;;;;;;5095897;28;19912;-67
2023/07/12 02:43:26;;;;;;;;;;;18.20;94.30;;;;;;5095955;28;19908;-65
2023/07/12 02:45:52;;;;;;;;;;;18.50;93.90;;;;;;5095725;28;19966;-68
2023/07/12 02:48:19;;;;;;;;;;;18.90;93.40;;;;;;5095823;28;19916;-68
2023/07/12 02:50:46;;;;;;;;;;;19.00;93.30;;;;;;5077420;28;19908;-66
2023/07/12 02:53:19;;;;;;;;;;;19.20;93.20;;;;;;5095476;28;19944;-64
2023/07/12 02:55:50;;;;;;;;;;;19.40;92.90;;;;;;5095016;28;19908;-65
2023/07/12 02:58:17;;;;;;;;;;;19.90;92.30;;;;;;5095447;28;19937;-67
2023/07/12 03:00:44;;;;;;;;;;;20.20;92.20;;;;;;5095493;28;19915;-67
2023/07/12 03:03:10;;;;;;;;;;;21.10;91.00;;;;;;5095452;28;19912;-67
2023/07/12 03:05:37;;;;;;;;;;;21.60;90.40;;;;;;5095596;28;20334;-68
2023/07/12 03:08:04;;;;;;;;;;;21.80;89.00;;;;;;5095135;28;20292;-68
2023/07/12 03:10:31;;;;;;;;;;;21.80;88.80;;;;;;5095362;28;20002;-68
2023/07/12 03:12:58;;;;;;;;;;;21.80;88.90;;;;;;5095154;28;19908;-67
2023/07/12 03:15:25;;;;;;;;;;;22.20;88.20;;;;;;5095009;28;19995;-68
2023/07/12 03:17:51;;;;;;;;;;;22.80;86.30;;;;;;5095526;28;19954;-68
2023/07/12 03:20:18;;;;;;;;;;;23.30;85.50;;;;;;5095142;28;19908;-67
2023/07/12 03:22:44;;;;;;;;;;;23.60;83.00;;;;;;5095037;28;19992;-68
2023/07/12 03:25:11;;;;;;;;;;;23.50;82.30;;;;;;5095179;28;20391;-69
2023/07/12 03:27:38;;;;;;;;;;;23.30;83.00;;;;;;5094519;28;19916;-67
2023/07/12 03:30:04;;;;;;;;;;;23.80;82.70;;;;;;5095150;28;19908;-68
2023/07/12 03:32:32;;;;;;;;;;;24.10;80.80;;;;;;5095018;28;20356;-68
2023/07/12 03:34:58;;;;;;;;;;;24.30;81.20;;;;;;5094937;28;19915;-66
2023/07/12 03:37:25;;;;;;;;;;;24.90;80.20;;;;;;5094864;28;19961;-69
2023/07/12 03:39:52;;;;;;;;;;;24.80;78.20;;;;;;5094488;28;19954;-68
2023/07/12 03:42:19;;;;;;;;;;;24.90;78.90;;;;;;5094735;28;19908;-69
2023/07/12 03:44:45;;;;;;;;;;;26.00;77.10;;;;;;5094548;28;19949;-68
2023/07/12 03:47:12;;;;;;;;;;;27.50;74.40;;;;;;5094603;28;20357;-67
2023/07/12 03:49:38;;;;;;;;;;;29.40;71.80;;;;;;5094500;28;19915;-68
2023/07/12 03:52:05;;;;;;;;;;;30.90;67.30;;;;;;5094304;28;19908;-68
2023/07/12 03:54:32;;;;;;;;;;;31.70;64.80;;;;;;5094519;28;20018;-67
2023/07/12 03:56:59;;;;;;;;;;;31.50;62.90;;;;;;5094485;28;20357;-68
2023/07/12 03:59:25;;;;;;;;;;;31.90;63.60;;;;;;5094560;28;19991;-69
2023/07/12 04:01:52;;;;;;;;;;;32.50;61.30;;;;;;5094677;28;19908;-68
2023/07/12 04:04:19;;;;;;;;;;;32.70;61.40;;;;;;5075490;28;19931;-69
2023/07/12 04:06:45;;;;;;;;;;;33.30;59.80;;;;;;5093349;28;19912;-69
2023/07/12 04:09:12;;;;;;;;;;;33.50;58.80;;;;;;5094288;28;19951;-66
2023/07/12 04:11:41;;;;;;;;;;;33.40;58.40;;;;;;5094191;28;19908;-69
2023/07/12 04:14:08;;;;;;;;;;;32.70;59.10;;;;;;5093728;28;20365;-67
2023/07/12 04:16:35;;;;;;;;;;;32.70;59.10;;;;;;5094087;28;19908;-68
2023/07/12 04:19:01;;;;;;;;;;;31.60;59.30;;;;;;5094046;28;19912;-67
2023/07/12 04:21:28;;;;;;;;;;;29.90;61.00;;;;;;5093976;28;19909;-68
2023/07/12 04:23:54;;;;;;;;;;;28.30;63.00;;;;;;5094181;28;19953;-64
2023/07/12 04:26:21;;;;;;;;;;;26.80;65.30;;;;;;5093991;28;19915;-66
2023/07/12 04:28:50;;;;;;;;;;;25.50;67.00;;;;;;5093683;28;20357;-68
2023/07/12 04:31:18;;;;;;;;;;;24.30;69.40;;;;;;5093702;28;19909;-67
2023/07/12 04:33:46;;;;;;;;;;;23.40;72.30;;;;;;5093748;28;20357;-66
2023/07/12 04:36:13;;;;;;;;;;;22.60;74.90;;;;;;5093536;28;20438;-68
2023/07/12 04:38:40;;;;;;;;;;;22.00;76.20;;;;;;5093798;28;19961;-67
2023/07/12 04:41:07;;;;;;;;;;;21.50;77.10;;;;;;5093555;28;19919;-67
2023/07/12 04:43:33;;;;;;;;;;;21.30;78.70;;;;;;5093549;28;19909;-67
2023/07/12 04:46:00;;;;;;;;;;;21.00;80.40;;;;;;5093421;28;19920;-64
2023/07/12 04:48:27;;;;;;;;;;;20.80;80.80;;;;;;5093498;28;20454;-67
2023/07/12 04:50:55;;;;;;;;;;;20.50;82.80;;;;;;5093370;28;20386;-66
2023/07/12 04:53:22;;;;;;;;;;;20.30;84.70;;;;;;5093476;28;19912;-68
2023/07/12 04:55:52;;;;;;;;;;;20.20;85.80;;;;;;5093403;28;19914;-68
2023/07/12 04:58:19;;;;;;;;;;;20.20;86.90;;;;;;5093336;28;20353;-67
2023/07/12 05:00:46;;;;;;;;;;;20.10;88.00;;;;;;5093415;28;19973;-69
2023/07/12 05:03:15;;;;;;;;;;;20.00;88.70;;;;;;5093094;28;19915;-67
2023/07/12 05:05:42;;;;;;;;;;;20.10;90.00;;;;;;5093213;28;19908;-68
2023/07/12 05:08:09;;;;;;;;;;;20.10;90.40;;;;;;5074983;28;19970;-70
2023/07/12 05:10:36;;;;;;;;;;;19.90;90.50;;;;;;5092893;28;19908;-64
2023/07/12 05:13:03;;;;;;;;;;;19.90;90.90;;;;;;5093298;28;19915;-68
2023/07/12 05:15:29;;;;;;;;;;;19.90;91.00;;;;;;5093018;28;19961;-67
2023/07/12 05:17:56;;;;;;;;;;;20.20;91.30;;;;;;5092677;28;19909;-70
2023/07/12 05:20:23;;;;;;;;;;;20.60;90.50;;;;;;5092915;28;20258;-68
2023/07/12 05:22:49;;;;;;;;;;;21.00;90.30;;;;;;5092889;28;19912;-67
2023/07/12 05:25:16;;;;;;;;;;;20.90;90.10;;;;;;5092816;28;19908;-66
2023/07/12 05:27:42;;;;;;;;;;;20.70;90.20;;;;;;5092679;28;19916;-69
2023/07/12 05:30:10;;;;;;;;;;;20.60;90.30;;;;;;5092693;28;19916;-67
2023/07/12 05:32:37;;;;;;;;;;;20.50;90.80;;;;;;5092641;28;19908;-69
2023/07/12 05:35:04;;;;;;;;;;;20.40;91.00;;;;;;5092850;28;20386;-65
2023/07/12 05:37:31;;;;;;;;;;;20.40;91.10;;;;;;5074732;28;19916;-70
2023/07/12 05:39:57;;;;;;;;;;;20.50;91.90;;;;;;5092575;28;19939;-68
2023/07/12 05:42:24;;;;;;;;;;;20.90;91.60;;;;;;5092771;28;19912;-67
2023/07/12 05:44:51;;;;;;;;;;;21.50;91.00;;;;;;5092646;28;19924;-65
2023/07/12 05:47:17;;;;;;;;;;;22.00;89.60;;;;;;5092762;28;20327;-68
2023/07/12 05:49:44;;;;;;;;;;;22.10;88.80;;;;;;5092526;28;19930;-68
2023/07/12 05:52:11;;;;;;;;;;;22.10;87.80;;;;;;5092773;28;19908;-67
2023/07/12 05:54:37;;;;;;;;;;;21.80;88.20;;;;;;5092490;28;20007;-66
2023/07/12 05:57:04;;;;;;;;;;;21.80;88.30;;;;;;5092636;28;19909;-67
2023/07/12 05:59:31;;;;;;;;;;;21.80;88.40;;;;;;5074452;28;19908;-69
2023/07/12 06:01:57;;;;;;;;;;;21.90;87.70;;;;;;5092738;28;20346;-68
2023/07/12 06:04:24;;;;;;;;;;;22.00;86.70;;;;;;5092628;28;19953;-68
2023/07/12 06:06:52;;;;;;;;;;;22.30;87.30;;;;;;5092438;28;20381;-68
2023/07/12 06:09:19;;;;;;;;;;;22.80;86.70;;;;;;5092355;28;19908;-69
2023/07/12 06:11:46;;;;;;;;;;;23.10;84.40;;;;;;5092629;28;19905;-66
2023/07/12 06:14:12;;;;;;;;;;;23.00;84.20;;;;;;5092397;28;19962;-64
2023/07/12 06:16:39;;;;;;;;;;;22.90;84.20;;;;;;5092509;28;19912;-64
2023/07/12 06:19:06;;;;;;;;;;;22.80;85.20;;;;;;5074450;28;20257;-65
2023/07/12 06:21:32;;;;;;;;;;;22.60;85.50;;;;;;5092523;28;20003;-64
2023/07/12 06:23:59;;;;;;;;;;;22.60;84.50;;;;;;5092393;28;20471;-65
2023/07/12 06:26:26;;;;;;;;;;;22.30;85.30;;;;;;5092425;28;20002;-67
2023/07/12 06:28:53;;;;;;;;;;;21.70;86.70;;;;;;5092320;28;19923;-65
2023/07/12 06:31:20;;;;;;;;;;;21.20;88.10;;;;;;5095920;28;20372;-65
2023/07/12 06:33:47;;;;;;;;;;;20.70;89.10;;;;;;5096221;28;19908;-65
2023/07/12 06:36:14;;;;;;;;;;;20.20;90.30;;;;;;5096039;28;19930;-65
2023/07/12 06:38:40;;;;;;;;;;;19.80;91.00;;;;;;5096003;28;19912;-65
2023/07/12 06:41:07;;;;;;;;;;;19.40;91.70;;;;;;5096057;28;20335;-64
2023/07/12 06:43:33;;;;;;;;;;;19.00;92.20;;;;;;5096098;28;19908;-64
2023/07/12 06:46:00;;;;;;;;;;;18.60;93.00;;;;;;5095737;28;19920;-64
2023/07/12 06:48:27;;;;;;;;;;;18.30;93.70;;;;;;5095947;28;19927;-64
2023/07/12 06:50:54;;;;;;;;;;;18.00;94.40;;;;;;5095596;28;20261;-63
2023/07/12 06:53:21;;;;;;;;;;;17.80;95.00;;;;;;5095704;28;20003;-65
2023/07/12 06:55:48;;;;;;;;;;;17.60;95.60;;;;;;5095802;28;19993;-68
2023/07/12 06:58:15;;;;;;;;;;;17.30;96.10;;;;;;5095686;28;19909;-63
2023/07/12 07:00:42;;;;;;;;;;;17.20;96.60;;;;;;5095624;28;19908;-68
2023/07/12 07:03:10;;;;;;;;;;;17.10;97.30;;;;;;5095742;28;19912;-64
2023/07/12 07:05:44;;;;;;;;;;;16.90;97.90;;;;;;5095728;28;19916;-66
2023/07/12 07:08:12;;;;;;;;;;;16.80;98.70;;;;;;5095387;28;20292;-66
2023/07/12 07:10:39;;;;;;;;;;;16.70;99.30;;;;;;5095292;28;19914;-64
2023/07/12 07:13:06;;;;;;;;;;;16.50;99.80;;;;;;5095444;28;19955;-65
2023/07/12 07:15:32;;;;;;;;;;;16.40;99.90;;;;;;5095348;28;20356;-67
2023/07/12 07:17:59;;;;;;;;;;;16.30;99.90;;;;;;5095129;28;19908;-64
2023/07/12 07:20:26;;;;;;;;;;;16.20;99.90;;;;;;5095035;28;20324;-63
2023/07/12 07:22:53;;;;;;;;;;;16.20;99.90;;;;;;5095039;28;20351;-66
2023/07/12 07:25:20;;;;;;;;;;;16.10;99.90;;;;;;5095339;28;19961;-66
2023/07/12 07:27:47;;;;;;;;;;;16.00;99.90;;;;;;5095236;28;19970;-69
2023/07/12 07:30:14;;;;;;;;;;;15.90;99.90;;;;;;5094837;28;20007;-65
2023/07/12 07:32:40;;;;;;;;;;;15.80;99.90;;;;;;5095078;28;20361;-64
2023/07/12 07:35:07;;;;;;;;;;;15.70;99.90;;;;;;5095222;28;19965;-63
2023/07/12 07:37:34;;;;;;;;;;;15.70;99.90;;;;;;5095002;28;19916;-67
2023/07/12 07:40:00;;;;;;;;;;;15.60;99.90;;;;;;5094560;28;19961;-68
2023/07/12 07:42:27;;;;;;;;;;;15.50;99.90;;;;;;5095028;28;20380;-66
2023/07/12 07:44:54;;;;;;;;;;;15.50;99.90;;;;;;5094577;28;19920;-66
2023/07/12 07:47:20;;;;;;;;;;;15.50;99.90;;;;;;5094665;28;19916;-63
2023/07/12 07:49:47;;;;;;;;;;;15.40;99.90;;;;;;5094640;28;19923;-65
2023/07/12 07:52:14;;;;;;;;;;;15.40;99.90;;;;;;5094540;28;19999;-66
2023/07/12 07:54:40;;;;;;;;;;;15.30;99.90;;;;;;5094838;28;20003;-65
2023/07/12 07:57:07;;;;;;;;;;;15.20;99.90;;;;;;5094225;28;19981;-63
2023/07/12 07:59:34;;;;;;;;;;;15.20;99.90;;;;;;5094445;28;20210;-64
2023/07/12 08:02:01;;;;;;;;;;;15.20;99.90;;;;;;5094507;28;19999;-63
2023/07/12 08:04:28;;;;;;;;;;;15.10;99.90;;;;;;5094427;28;19951;-66
2023/07/12 08:06:56;;;;;;;;;;;15.10;99.90;;;;;;5075949;28;19958;-64
2023/07/12 08:09:22;;;;;;;;;;;15.10;99.90;;;;;;5094022;28;19916;-64
2023/07/12 08:11:49;;;;;;;;;;;15.00;99.90;;;;;;5094097;28;19943;-65
2023/07/12 08:14:18;;;;;;;;;;;15.00;99.90;;;;;;5093855;28;19908;-64
2023/07/12 08:16:44;;;;;;;;;;;15.00;99.90;;;;;;5094140;28;19912;-65
2023/07/12 08:19:11;;;;;;;;;;;15.00;99.90;;;;;;5094113;28;20449;-66
2023/07/12 08:21:38;;;;;;;;;;;14.90;99.90;;;;;;5093722;28;19909;-64
2023/07/12 08:24:04;;;;;;;;;;;14.90;99.90;;;;;;5093925;28;20003;-64
2023/07/12 08:26:31;;;;;;;;;;;14.90;99.90;;;;;;5075968;28;20557;-65
2023/07/12 08:28:58;;;;;;;;;;;14.80;99.90;;;;;;5093854;28;19923;-64
2023/07/12 08:31:24;;;;;;;;;;;14.80;99.90;;;;;;5093982;28;19908;-65
2023/07/12 08:33:51;;;;;;;;;;;14.80;99.90;;;;;;5093812;28;19909;-64
2023/07/12 08:36:18;;;;;;;;;;;14.80;99.90;;;;;;5093536;28;19908;-63
2023/07/12 08:38:47;;;;;;;;;;;14.80;99.90;;;;;;5093637;28;19908;-63
2023/07/12 08:41:15;;;;;;;;;;;14.70;99.90;;;;;;5075421;28;19908;-64
2023/07/12 08:43:42;;;;;;;;;;;14.70;99.90;;;;;;5093494;28;19908;-67
2023/07/12 08:46:15;;;;;;;;;;;14.60;99.90;;;;;;5093419;28;20022;-64
2023/07/12 08:48:42;;;;;;;;;;;14.70;99.90;;;;;;5093667;28;20379;-68
2023/07/12 08:51:15;;;;;;;;;;;14.60;99.90;;;;;;5092726;28;20221;-67
2023/07/12 08:53:42;;;;;;;;;;;14.60;99.90;;;;;;5093143;28;19961;-67
2023/07/12 08:56:12;;;;;;;;;;;14.60;99.90;;;;;;5093471;28;19962;-66
2023/07/12 08:58:43;;;;;;;;;;;14.50;99.90;;;;;;5093287;28;19912;-63
2023/07/12 09:01:28;;;;;;;;;;;14.50;99.90;;;;;;5093468;28;19908;-68
2023/07/12 09:03:54;;;;;;;;;;;14.40;99.90;;;;;;5093516;28;19930;-65
2023/07/12 09:06:21;;;;;;;;;;;14.30;99.90;;;;;;5093281;28;19908;-65
2023/07/12 09:08:53;;;;;;;;;;;14.30;99.90;;;;;;5093102;28;19985;-70
2023/07/12 09:11:26;;;;;;;;;;;14.30;99.90;;;;;;5093115;28;20375;-70
2023/07/12 09:13:54;;;;;;;;;;;14.30;99.90;;;;;;5093229;28;19915;-69
2023/07/12 09:16:23;;;;;;;;;;;14.30;99.90;;;;;;5093143;28;20414;-66
2023/07/12 09:18:54;;;;;;;;;;;14.30;99.90;;;;;;5092915;28;20006;-66
2023/07/12 09:21:22;;;;;;;;;;;14.20;99.90;;;;;;5092929;28;19908;-63
2023/07/12 09:23:51;;;;;;;;;;;14.10;99.90;;;;;;5092926;28;19995;-65
2023/07/12 09:26:26;;;;;;;;;;;14.10;99.90;;;;;;5093133;28;19943;-66
2023/07/12 09:28:57;;;;;;;;;;;14.00;99.90;;;;;;5093145;28;19916;-66
2023/07/12 09:31:28;;;;;;;;;;;14.00;99.90;;;;;;5092977;28;19908;-68
2023/07/12 09:33:58;;;;;;;;;;;14.00;99.90;;;;;;5074596;28;20417;-68
2023/07/12 09:36:24;;;;;;;;;;;14.00;99.90;;;;;;5092999;28;19934;-66
2023/07/12 09:38:51;;;;;;;;;;;13.90;99.90;;;;;;5093092;28;19915;-68
2023/07/12 09:41:19;;;;;;;;;;;13.90;99.90;;;;;;5074792;28;20349;-64
2023/07/12 09:43:49;;;;;;;;;;;13.80;99.90;;;;;;5092534;28;20292;-69
2023/07/12 09:46:27;;;;;;;;;;;13.80;99.90;;;;;;5092648;28;19920;-65
2023/07/12 09:49:20;;;;;;;;;;;13.80;99.90;;;;;;5092970;28;19924;-68
2023/07/12 09:51:49;;;;;;;;;;;13.70;99.90;;;;;;5052039;28;20010;-65
2023/07/12 09:54:39;;;;;;;;;;;13.60;99.90;;;;;;5092980;28;19908;-64
2023/07/12 09:57:15;;;;;;;;;;;13.60;99.90;;;;;;5084690;28;20315;-65
2023/07/12 09:59:41;;;;;;;;;;;13.50;99.90;;;;;;5092314;28;20045;-67
2023/07/12 10:02:20;;;;;;;;;;;13.50;99.90;;;;;;5092599;28;19916;-63
2023/07/12 10:04:53;;;;;;;;;;;13.40;99.90;;;;;;5094187;28;19916;-68
2023/07/12 10:07:28;;;;;;;;;;;13.40;99.90;;;;;;5096812;28;19912;-64
2023/07/12 10:09:56;;;;;;;;;;;13.40;99.90;;;;;;5096486;28;19912;-64
2023/07/12 10:12:29;;;;;;;;;;;13.30;99.90;;;;;;5096729;28;19908;-65
2023/07/12 10:14:55;;;;;;;;;;;13.30;99.90;;;;;;5096645;28;19954;-64
2023/07/12 10:17:33;;;;;;;;;;;13.30;99.90;;;;;;5097093;28;20264;-65
2023/07/12 10:20:01;;;;;;;;;;;13.20;99.90;;;;;;5096037;28;20349;-64
2023/07/12 10:22:31;;;;;;;;;;;13.20;99.90;;;;;;5096369;28;19912;-64
2023/07/12 10:24:59;;;;;;;;;;;13.10;99.90;;;;;;5096387;28;20422;-63
2023/07/12 10:27:35;;;;;;;;;;;13.20;99.90;;;;;;5096150;28;19916;-67
2023/07/12 10:30:10;;;;;;;;;;;13.20;99.90;;;;;;5096124;28;20003;-65
2023/07/12 10:32:41;;;;;;;;;;;13.10;99.90;;;;;;5096299;28;19923;-68
2023/07/12 10:35:16;;;;;;;;;;;13.20;99.90;;;;;;5096248;28;19908;-68
2023/07/12 10:37:46;;;;;;;;;;;13.20;99.90;;;;;;5095976;28;19909;-68
2023/07/12 10:40:15;;;;;;;;;;;13.10;99.90;;;;;;5077901;28;20305;-65
2023/07/12 10:42:45;;;;;;;;;;;13.20;99.90;;;;;;5078096;28;19916;-68
2023/07/12 10:45:25;;;;;;;;;;;13.20;99.90;;;;;;5096011;28;20274;-65
2023/07/12 10:47:52;;;;;;;;;;;13.20;99.90;;;;;;5061204;28;20335;-64
2023/07/12 10:50:24;;;;;;;;;;;13.20;99.90;;;;;;5095925;28;19908;-64
2023/07/12 10:53:17;;;;;;;;;;;13.20;99.90;;;;;;5095671;28;19947;-65
2023/07/12 10:56:05;;;;;;;;;;;13.20;99.90;;;;;;5093195;28;19944;-65
2023/07/12 10:58:50;;;;;;;;;;;13.20;99.90;;;;;;5095692;28;19909;-65
2023/07/12 11:01:35;;;;;;;;;;;13.20;99.90;;;;;;5095281;28;19969;-68
2023/07/12 11:04:19;;;;;;;;;;;13.10;99.90;;;;;;5095544;28;19999;-68
2023/07/12 11:06:56;;;;;;;;;;;13.10;99.90;;;;;;5095417;28;19908;-69
2023/07/12 11:09:23;;;;;;;;;;;13.00;99.90;;;;;;5095412;28;19909;-68
2023/07/12 11:11:57;;;;;;;;;;;13.10;99.90;;;;;;5095153;28;19983;-68
2023/07/12 11:14:26;;;;;;;;;;;13.00;99.90;;;;;;5095013;28;20261;-66
2023/07/12 11:17:09;;;;;;;;;;;13.10;99.90;;;;;;5094663;28;19993;-66
2023/07/12 11:19:42;;;;;;;;;;;13.10;99.90;;;;;;5094647;28;19908;-67
2023/07/12 11:22:12;;;;;;;;;;;13.00;99.90;;;;;;5094962;28;20018;-67
2023/07/12 11:24:52;;;;;;;;;;;13.00;99.90;;;;;;5094991;28;19908;-65
2023/07/12 11:27:25;;;;;;;;;;;13.00;99.90;;;;;;5094967;28;19923;-65
2023/07/12 11:29:54;;;;;;;;;;;12.90;99.90;;;;;;5094854;28;20361;-69
2023/07/12 11:32:24;;;;;;;;;;;12.90;99.90;;;;;;5094704;28;19956;-68
2023/07/12 11:34:59;;;;;;;;;;;12.80;99.90;;;;;;5094965;28;19908;-69
2023/07/12 11:37:37;;;;;;;;;;;12.80;99.90;;;;;;5094887;28;19908;-67
2023/07/12 11:40:24;;;;;;;;;;;12.80;99.90;;;;;;5094755;28;19962;-66
2023/07/12 11:42:50;;;;;;;;;;;12.80;99.90;;;;;;5094551;28;20276;-67
2023/07/12 11:45:19;;;;;;;;;;;12.70;99.90;;;;;;5094552;28;19923;-66
2023/07/12 11:47:48;;;;;;;;;;;12.60;99.90;;;;;;5094253;28;19969;-66
2023/07/12 11:50:19;;;;;;;;;;;12.60;99.90;;;;;;5094277;28;20395;-66
2023/07/12 11:52:46;;;;;;;;;;;12.50;99.90;;;;;;5094391;28;20322;-64
2023/07/12 11:55:17;;;;;;;;;;;12.50;99.90;;;;;;5094483;28;19908;-64
2023/07/12 11:57:45;;;;;;;;;;;12.40;99.90;;;;;;5094460;28;19991;-66
2023/07/12 12:00:23;;;;;;;;;;;12.40;99.90;;;;;;5094226;28;19962;-68
2023/07/12 12:02:51;;;;;;;;;;;12.40;99.90;;;;;;5094407;28;19914;-67
2023/07/12 12:05:24;;;;;;;;;;;12.30;99.90;;;;;;5094076;28;19954;-66
2023/07/12 12:07:53;;;;;;;;;;;12.20;99.90;;;;;;5075902;28;19971;-66
2023/07/12 12:10:22;;;;;;;;;;;12.20;99.90;;;;;;5093805;28;20015;-66
2023/07/12 12:12:49;;;;;;;;;;;12.10;99.90;;;;;;5094166;28;19908;-66
2023/07/12 12:15:17;;;;;;;;;;;12.10;99.90;;;;;;5093928;28;19934;-67
2023/07/12 12:17:44;;;;;;;;;;;12.10;99.90;;;;;;5094039;28;19930;-67
2023/07/12 12:20:22;;;;;;;;;;;12.10;99.90;;;;;;5093636;28;19912;-64
2023/07/12 12:23:07;;;;;;;;;;;12.00;99.90;;;;;;5093998;28;19943;-67
2023/07/12 12:25:43;;;;;;;;;;;11.90;99.90;;;;;;5093899;28;19951;-65
2023/07/12 12:28:19;;;;;;;;;;;12.00;99.90;;;;;;5092920;28;19916;-64
2023/07/12 12:30:56;;;;;;;;;;;11.90;99.90;;;;;;5093847;28;19908;-68
2023/07/12 12:33:24;;;;;;;;;;;11.80;99.90;;;;;;5093812;28;20308;-65
2023/07/12 12:35:57;;;;;;;;;;;11.80;99.90;;;;;;5093705;28;19908;-65
2023/07/12 12:38:26;;;;;;;;;;;11.80;99.90;;;;;;5093693;28;19958;-64
2023/07/12 12:40:56;;;;;;;;;;;11.80;99.90;;;;;;5093331;28;19959;-66
2023/07/12 12:43:26;;;;;;;;;;;11.80;99.90;;;;;;5093531;28;19908;-64
2023/07/12 12:45:54;;;;;;;;;;;11.80;99.90;;;;;;5093315;28;20287;-66
2023/07/12 12:48:21;;;;;;;;;;;11.70;99.90;;;;;;5093121;28;19916;-67
2023/07/12 12:50:49;;;;;;;;;;;11.80;99.90;;;;;;5093309;28;20322;-69
2023/07/12 12:53:18;;;;;;;;;;;11.70;99.90;;;;;;5093267;28;19916;-68
2023/07/12 12:55:48;;;;;;;;;;;11.70;99.90;;;;;;5093345;28;20031;-66
2023/07/12 12:58:15;;;;;;;;;;;11.70;99.90;;;;;;5074977;28;20373;-68
2023/07/12 13:00:42;;;;;;;;;;;11.70;99.90;;;;;;5093244;28;19915;-68
2023/07/12 13:03:12;;;;;;;;;;;11.70;99.90;;;;;;5093009;28;19961;-68
2023/07/12 13:05:38;;;;;;;;;;;11.70;99.90;;;;;;5093312;28;20400;-69
2023/07/12 13:08:16;;;;;;;;;;;11.70;99.90;;;;;;5093160;28;19970;-70
2023/07/12 13:10:43;;;;;;;;;;;11.60;99.90;;;;;;5092689;28;19995;-70
2023/07/12 13:13:19;;;;;;;;;;;11.60;99.90;;;;;;5093184;28;19974;-69
2023/07/12 13:15:47;;;;;;;;;;;11.50;99.90;;;;;;5093043;28;20023;-66
2023/07/12 13:18:14;;;;;;;;;;;11.50;99.90;;;;;;5092927;28;19908;-64
2023/07/12 13:20:41;;;;;;;;;;;11.40;99.90;;;;;;5092733;28;19987;-63
2023/07/12 13:23:11;;;;;;;;;;;11.50;99.90;;;;;;5093511;28;20026;-67
2023/07/12 13:25:40;;;;;;;;;;;11.40;99.90;;;;;;5092972;28;19943;-63
2023/07/12 13:28:13;;;;;;;;;;;11.40;99.90;;;;;;5092843;28;20390;-65
2023/07/12 13:30:40;;;;;;;;;;;11.40;99.90;;;;;;5092653;28;19954;-67
2023/07/12 13:33:11;;;;;;;;;;;11.40;99.90;;;;;;5092925;28;19918;-66
2023/07/12 13:35:37;;;;;;;;;;;11.30;99.90;;;;;;5093000;28;19912;-65
2023/07/12 13:38:05;;;;;;;;;;;11.40;99.90;;;;;;5092874;28;19956;-67
2023/07/12 13:40:32;;;;;;;;;;;11.30;99.90;;;;;;5074422;28;19951;-64
2023/07/12 13:42:58;;;;;;;;;;;11.40;99.90;;;;;;5092649;28;19912;-69
2023/07/12 13:45:25;;;;;;;;;;;11.40;99.90;;;;;;5092392;28;20265;-69
2023/07/12 13:47:52;;;;;;;;;;;11.40;99.90;;;;;;5092684;28;19923;-69
2023/07/12 13:50:19;;;;;;;;;;;11.30;99.90;;;;;;5092883;28;19909;-69
2023/07/12 13:52:46;;;;;;;;;;;11.30;99.90;;;;;;5092678;28;19908;-67
2023/07/12 13:55:14;;;;;;;;;;;11.30;99.90;;;;;;5092774;28;19951;-66
2023/07/12 13:57:41;;;;;;;;;;;11.20;99.90;;;;;;5092927;28;19915;-68
2023/07/12 14:00:11;;;;;;;;;;;11.30;99.90;;;;;;5092633;28;20014;-65
2023/07/12 14:02:38;;;;;;;;;;;11.20;99.90;;;;;;5092768;28;19931;-69
2023/07/12 14:05:07;;;;;;;;;;;11.20;99.90;;;;;;5092932;28;19951;-68
2023/07/12 14:07:42;;;;;;;;;;;11.20;99.90;;;;;;5092825;28;19912;-68
2023/07/12 14:10:13;;;;;;;;;;;11.10;99.90;;;;;;5092732;28;20012;-66
2023/07/12 14:12:39;;;;;;;;;;;11.00;99.90;;;;;;5092432;28;19908;-67
2023/07/12 14:15:06;;;;;;;;;;;11.00;99.90;;;;;;5092655;28;20006;-66
2023/07/12 14:17:33;;;;;;;;;;;11.00;99.90;;;;;;5092562;28;19908;-67
2023/07/12 14:20:01;;;;;;;;;;;10.90;99.90;;;;;;5092428;28;19912;-70
2023/07/12 14:22:28;;;;;;;;;;;11.00;99.90;;;;;;5092460;28;19966;-67
2023/07/12 14:24:57;;;;;;;;;;;10.90;99.90;;;;;;5092344;28;19993;-69